Main page
METAR-TAF:

METAR-TAF

Airports :

Carajás Airport

Parauapebas, Pará, Brazil

latitude: 06-07S, longitude: 050-00W, elevation: 621 m

Current weather observation

The report was made 8 hours and 36 minutes ago, at 21:30 UTC
Calm wind
Temperature 24°C
Humidity 83%
Pressure 1013 hPa
Visibility 10 km or more
no clouds below 1500 m and no cumulonimbus

METAR: SBCJ 232130Z 00000KT CAVOK 24/21 Q1013

Time: 03:06 (06:06 UTC)

Forecast

The report was made 2 hours and 6 minutes ago, at 04:00 UTC
Forecast valid from 24 at 06 UTC to 24 at 18 UTC
Wind 2 kt from the North/Northeast
Visibility 10 km or more
Scattered clouds at a height of 1500 ft
Probability 30%
from 24 at 10 UTC to 24 at 13 UTC
Visibility: 4000 m
mist
Becoming
from 24 at 15 UTC to 24 at 17 UTC
Scattered clouds at a height of 3000 ft

TAF: SBCJ 240400Z 2406/2418 03002KT 9999 SCT015 TN22/2407Z TX32/2418Z PROB30 2410/2413 4000 BR BECMG 2415/2417 SCT030 RMK PDU

Weather observations and forecasts of more than 4000 airports (METAR and TAF reports).

The available stations are represented by yellow and red dots on the map.

Hover mouse over dot to see the name of the station.

Then click to see weather observations and forecasts.

To change the map : click on the green buttons with a black cross to zoom in, on the green button with a dash to zoom out, or on the green arrows for adjacent maps.


METAR-TAF: